Time;durP1;ratioP1;P1;durP2;ratioP2;P2;SDS_P1;SDS_P2;PMS_P1;PMS_P2;Temp;Humidity;BMP_temperature;BMP_pressure;BME280_temperature;BME280_humidity;BME280_pressure;Samples;Min_cycle;Max_cycle;Signal;HPM_P1;HPM_P2
2023/07/31 00:00:51;;;;;;;6.88;2.30;;;;;;;;;;5113408;28;20035;-77
2023/07/31 00:03:17;;;;;;;7.63;2.80;;;;;;;;;;5116389;28;20047;-78
2023/07/31 00:05:43;;;;;;;8.13;2.50;;;;;;;;;;5115458;28;20091;-78
2023/07/31 00:08:10;;;;;;;6.22;2.60;;;;;;;;;;5114147;28;20090;-78
2023/07/31 00:10:36;;;;;;;6.93;2.42;;;;;;;;;;5114925;28;20043;-77
2023/07/31 00:13:02;;;;;;;7.35;2.30;;;;;;;;;;5114681;28;20047;-78
2023/07/31 00:15:28;;;;;;;7.40;2.42;;;;;;;;;;5114899;28;20065;-77
2023/07/31 00:17:54;;;;;;;8.43;2.78;;;;;;;;;;5118126;28;20051;-77
2023/07/31 00:20:20;;;;;;;5.82;2.25;;;;;;;;;;5117517;28;20577;-78
2023/07/31 00:22:46;;;;;;;7.03;2.65;;;;;;;;;;5105875;28;20039;-78
2023/07/31 00:25:12;;;;;;;6.38;2.55;;;;;;;;;;5115836;28;20386;-78
2023/07/31 00:27:38;;;;;;;7.57;2.40;;;;;;;;;;5112700;28;20097;-78
2023/07/31 00:30:05;;;;;;;7.75;3.00;;;;;;;;;;5103147;28;20035;-78
2023/07/31 00:32:31;;;;;;;5.85;2.38;;;;;;;;;;5114229;28;20036;-78
2023/07/31 00:34:57;;;;;;;7.07;2.47;;;;;;;;;;5109166;28;20046;-78
2023/07/31 00:37:23;;;;;;;7.45;2.50;;;;;;;;;;5107413;28;20040;-78
2023/07/31 00:39:49;;;;;;;6.45;2.58;;;;;;;;;;5114989;28;20075;-78
2023/07/31 00:42:15;;;;;;;6.35;2.40;;;;;;;;;;5107381;28;20497;-78
2023/07/31 00:44:41;;;;;;;8.88;2.55;;;;;;;;;;5110467;28;20046;-78
2023/07/31 00:47:07;;;;;;;5.95;2.53;;;;;;;;;;5114741;28;20058;-78
2023/07/31 00:49:33;;;;;;;5.20;2.65;;;;;;;;;;5113708;28;20051;-78
2023/07/31 00:52:00;;;;;;;5.70;2.72;;;;;;;;;;5112685;28;20159;-77
2023/07/31 00:54:26;;;;;;;6.10;2.60;;;;;;;;;;5110109;28;20063;-78
2023/07/31 00:56:53;;;;;;;6.60;2.58;;;;;;;;;;5112067;28;20043;-78
2023/07/31 00:59:19;;;;;;;5.20;2.35;;;;;;;;;;5107905;28;20460;-78
2023/07/31 01:01:46;;;;;;;5.65;2.80;;;;;;;;;;5107398;28;20061;-78
2023/07/31 01:04:12;;;;;;;4.78;2.10;;;;;;;;;;5112026;28;20062;-78
2023/07/31 01:06:45;;;;;;;6.75;2.70;;;;;;;;;;5108738;28;20043;-78
2023/07/31 01:09:17;;;;;;;7.80;2.70;;;;;;;;;;5091702;28;20044;-78
2023/07/31 01:11:47;;;;;;;5.63;2.58;;;;;;;;;;5105386;28;20043;-78
2023/07/31 01:14:13;;;;;;;6.50;2.50;;;;;;;;;;5111135;28;20097;-78
2023/07/31 01:16:39;;;;;;;4.97;2.17;;;;;;;;;;5114016;28;20066;-78
2023/07/31 01:19:06;;;;;;;8.80;2.50;;;;;;;;;;5111770;28;20040;-78
2023/07/31 01:21:36;;;;;;;5.22;2.28;;;;;;;;;;5108888;28;20047;-78
2023/07/31 01:24:11;;;;;;;6.80;2.30;;;;;;;;;;5111792;28;20039;-78
2023/07/31 01:26:38;;;;;;;5.50;2.40;;;;;;;;;;5110625;28;20043;-78
2023/07/31 01:29:13;;;;;;;5.70;2.15;;;;;;;;;;5103082;28;20407;-78
2023/07/31 01:31:40;;;;;;;6.07;2.50;;;;;;;;;;5108205;28;20122;-78
2023/07/31 01:34:06;;;;;;;5.20;2.08;;;;;;;;;;5112205;28;20043;-78
2023/07/31 01:36:32;;;;;;;4.10;1.67;;;;;;;;;;5113492;28;20044;-78
2023/07/31 01:39:00;;;;;;;4.63;1.80;;;;;;;;;;5105285;28;20043;-78
2023/07/31 01:41:26;;;;;;;4.57;1.50;;;;;;;;;;5111479;28;20039;-78
2023/07/31 01:43:52;;;;;;;6.00;1.77;;;;;;;;;;5110464;28;20051;-78
2023/07/31 01:46:18;;;;;;;4.05;1.63;;;;;;;;;;5111767;28;20090;-78
2023/07/31 01:48:44;;;;;;;4.32;1.67;;;;;;;;;;5108021;28;20050;-78
2023/07/31 01:51:10;;;;;;;3.42;1.38;;;;;;;;;;5112511;28;20040;-78
2023/07/31 01:53:36;;;;;;;3.88;1.40;;;;;;;;;;5107790;28;20370;-78
2023/07/31 01:56:02;;;;;;;5.47;1.70;;;;;;;;;;5100808;28;20130;-78
2023/07/31 01:58:28;;;;;;;3.45;1.27;;;;;;;;;;5112502;28;20036;-78
2023/07/31 02:00:54;;;;;;;4.65;1.30;;;;;;;;;;5108389;28;20044;-78
2023/07/31 02:03:20;;;;;;;3.60;1.17;;;;;;;;;;5101807;28;20036;-78
2023/07/31 02:05:47;;;;;;;3.47;1.35;;;;;;;;;;5114119;28;20048;-78
2023/07/31 02:08:13;;;;;;;4.18;1.40;;;;;;;;;;5109246;28;20394;-78
2023/07/31 02:10:39;;;;;;;3.47;1.23;;;;;;;;;;5103238;28;20059;-78
2023/07/31 02:13:05;;;;;;;3.65;1.27;;;;;;;;;;5107899;28;20043;-78
2023/07/31 02:15:31;;;;;;;3.33;1.17;;;;;;;;;;5115003;28;20035;-78
2023/07/31 02:17:57;;;;;;;4.43;1.20;;;;;;;;;;5101920;28;20036;-78
2023/07/31 02:20:23;;;;;;;4.97;1.27;;;;;;;;;;5115453;28;20443;-78
2023/07/31 02:22:50;;;;;;;3.90;1.10;;;;;;;;;;5114899;28;20448;-78
2023/07/31 02:25:16;;;;;;;3.85;1.25;;;;;;;;;;5116295;28;20100;-78
2023/07/31 02:27:42;;;;;;;5.63;1.48;;;;;;;;;;5115713;28;20055;-78
2023/07/31 02:30:08;;;;;;;4.85;1.48;;;;;;;;;;5116797;28;20050;-78
2023/07/31 02:32:34;;;;;;;3.30;1.10;;;;;;;;;;5116879;28;20050;-78
2023/07/31 02:35:00;;;;;;;2.65;1.13;;;;;;;;;;5093116;28;20413;-77
2023/07/31 02:37:28;;;;;;;3.22;1.15;;;;;;;;;;5099355;28;20043;-78
2023/07/31 02:39:54;;;;;;;3.20;0.93;;;;;;;;;;5117791;28;20455;-78
2023/07/31 02:42:20;;;;;;;4.32;1.20;;;;;;;;;;5116580;28;20064;-78
2023/07/31 02:44:46;;;;;;;2.67;0.80;;;;;;;;;;5116569;28;20050;-78
2023/07/31 02:47:12;;;;;;;2.10;0.85;;;;;;;;;;5116173;28;20553;-78
2023/07/31 02:49:38;;;;;;;4.15;1.20;;;;;;;;;;5116848;28;20393;-78
2023/07/31 02:52:05;;;;;;;3.63;1.17;;;;;;;;;;5116119;28;20082;-78
2023/07/31 02:54:31;;;;;;;2.17;0.85;;;;;;;;;;5115874;28;20075;-78
2023/07/31 02:56:57;;;;;;;2.53;1.05;;;;;;;;;;5108782;27;20036;-78
2023/07/31 02:59:25;;;;;;;3.60;0.90;;;;;;;;;;5113362;28;20082;-78
2023/07/31 03:01:51;;;;;;;3.15;1.00;;;;;;;;;;5113660;28;20101;-77
2023/07/31 03:04:17;;;;;;;1.67;0.77;;;;;;;;;;5115217;28;20378;-78
2023/07/31 03:06:43;;;;;;;2.83;0.82;;;;;;;;;;5111306;28;20036;-77
2023/07/31 03:09:09;;;;;;;2.78;0.90;;;;;;;;;;5110476;28;20055;-78
2023/07/31 03:11:35;;;;;;;2.65;1.20;;;;;;;;;;5112056;28;20781;-78
2023/07/31 03:14:01;;;;;;;2.42;0.80;;;;;;;;;;5115465;28;20039;-77
2023/07/31 03:16:27;;;;;;;1.90;0.80;;;;;;;;;;5115353;28;20394;-77
2023/07/31 03:18:54;;;;;;;3.30;1.05;;;;;;;;;;5115688;28;20100;-78
2023/07/31 03:21:20;;;;;;;2.05;0.90;;;;;;;;;;5110986;28;20046;-77
2023/07/31 03:23:46;;;;;;;2.63;0.90;;;;;;;;;;5107735;28;20515;-78
2023/07/31 03:26:13;;;;;;;3.63;0.90;;;;;;;;;;5114300;28;20046;-77
2023/07/31 03:28:39;;;;;;;3.05;0.95;;;;;;;;;;5113182;28;20051;-78
2023/07/31 03:31:05;;;;;;;2.95;0.90;;;;;;;;;;5111724;28;20048;-78
2023/07/31 03:33:31;;;;;;;2.10;0.90;;;;;;;;;;5114954;28;20043;-78
2023/07/31 03:35:57;;;;;;;3.83;0.98;;;;;;;;;;5113347;28;20065;-77
2023/07/31 03:38:23;;;;;;;3.35;1.13;;;;;;;;;;5096741;28;20047;-78
2023/07/31 03:40:50;;;;;;;2.58;1.05;;;;;;;;;;5081513;28;20044;-78
2023/07/31 03:43:16;;;;;;;4.07;1.30;;;;;;;;;;5115039;28;20043;-77
2023/07/31 03:45:42;;;;;;;3.38;1.70;;;;;;;;;;5114969;28;20126;-77
2023/07/31 03:48:08;;;;;;;4.20;1.92;;;;;;;;;;5088302;28;20051;-78
2023/07/31 03:50:34;;;;;;;4.20;1.67;;;;;;;;;;5108061;28;20143;-78
2023/07/31 03:53:00;;;;;;;3.70;1.75;;;;;;;;;;5098404;28;20498;-78
2023/07/31 03:55:26;;;;;;;4.82;2.20;;;;;;;;;;5109411;28;20047;-78
2023/07/31 03:57:52;;;;;;;4.95;1.85;;;;;;;;;;5113867;28;20743;-78
2023/07/31 04:00:19;;;;;;;4.30;1.92;;;;;;;;;;5114494;28;20076;-78
2023/07/31 04:02:45;;;;;;;5.35;2.08;;;;;;;;;;5106210;28;20118;-78
2023/07/31 04:05:11;;;;;;;3.75;1.60;;;;;;;;;;5098593;28;20044;-78
2023/07/31 04:07:37;;;;;;;4.32;1.80;;;;;;;;;;5082723;28;20136;-79
2023/07/31 04:10:03;;;;;;;6.15;1.98;;;;;;;;;;5106026;28;20036;-78
2023/07/31 04:12:29;;;;;;;4.20;2.08;;;;;;;;;;5101966;28;20474;-78
2023/07/31 04:14:56;;;;;;;3.80;1.52;;;;;;;;;;5105348;28;20058;-78
2023/07/31 04:17:22;;;;;;;4.68;2.00;;;;;;;;;;5093508;28;20056;-78
2023/07/31 04:19:48;;;;;;;5.45;1.90;;;;;;;;;;5077153;28;20521;-79
2023/07/31 04:22:14;;;;;;;5.60;1.90;;;;;;;;;;5079282;28;20405;-78
2023/07/31 04:24:40;;;;;;;3.88;1.58;;;;;;;;;;5108804;28;20048;-79
2023/07/31 04:27:06;;;;;;;4.18;1.42;;;;;;;;;;5100509;28;20051;-79
2023/07/31 04:29:32;;;;;;;3.40;1.50;;;;;;;;;;5113471;28;20501;-79
2023/07/31 04:31:58;;;;;;;7.20;1.40;;;;;;;;;;5112996;28;20040;-78
2023/07/31 04:34:24;;;;;;;4.82;1.30;;;;;;;;;;5100283;28;20119;-78
2023/07/31 04:36:50;;;;;;;3.63;1.35;;;;;;;;;;5113744;28;20051;-78
2023/07/31 04:39:16;;;;;;;3.08;1.00;;;;;;;;;;5112470;28;20080;-78
2023/07/31 04:41:42;;;;;;;5.18;1.25;;;;;;;;;;5095851;28;20055;-78
2023/07/31 04:44:11;;;;;;;3.08;1.00;;;;;;;;;;5113247;28;20039;-78
2023/07/31 04:46:37;;;;;;;2.50;0.80;;;;;;;;;;5095001;28;20043;-78
2023/07/31 04:49:03;;;;;;;2.22;0.70;;;;;;;;;;5113214;28;20054;-78
2023/07/31 04:51:29;;;;;;;2.65;0.80;;;;;;;;;;5113807;28;20039;-78
2023/07/31 04:53:56;;;;;;;3.03;0.70;;;;;;;;;;5107620;28;20536;-79
2023/07/31 04:56:22;;;;;;;3.25;0.73;;;;;;;;;;5112982;28;20481;-78
2023/07/31 04:58:48;;;;;;;1.85;0.70;;;;;;;;;;5112958;28;20410;-78
2023/07/31 05:01:14;;;;;;;2.95;0.90;;;;;;;;;;5109936;28;20417;-78
2023/07/31 05:03:40;;;;;;;4.82;0.93;;;;;;;;;;5104713;28;20048;-78
2023/07/31 05:06:06;;;;;;;2.83;0.90;;;;;;;;;;5109348;28;20074;-78
2023/07/31 05:08:33;;;;;;;3.42;0.80;;;;;;;;;;5110980;28;20382;-79
2023/07/31 05:10:59;;;;;;;2.33;0.75;;;;;;;;;;5108254;28;20085;-78
2023/07/31 05:13:25;;;;;;;2.80;0.70;;;;;;;;;;5110422;28;20044;-78
2023/07/31 05:15:51;;;;;;;4.18;1.10;;;;;;;;;;5105756;28;20044;-78
2023/07/31 05:18:17;;;;;;;5.28;1.20;;;;;;;;;;5093228;28;20052;-78
2023/07/31 05:20:43;;;;;;;5.57;1.90;;;;;;;;;;5108986;28;20515;-78
2023/07/31 05:23:12;;;;;;;6.97;2.53;;;;;;;;;;5101684;28;20044;-78
2023/07/31 05:25:38;;;;;;;7.57;2.17;;;;;;;;;;5100982;28;20052;-77
2023/07/31 05:28:04;;;;;;;9.27;3.22;;;;;;;;;;5111597;28;20527;-77
2023/07/31 05:30:31;;;;;;;6.75;3.03;;;;;;;;;;5111120;28;20051;-77
2023/07/31 05:32:57;;;;;;;8.05;2.80;;;;;;;;;;5110546;28;20036;-77
2023/07/31 05:35:23;;;;;;;10.88;4.00;;;;;;;;;;5111499;28;20067;-77
2023/07/31 05:37:49;;;;;;;11.55;4.15;;;;;;;;;;5112229;28;20042;-77
2023/07/31 05:40:15;;;;;;;9.98;3.90;;;;;;;;;;5110717;28;20479;-78
2023/07/31 05:42:41;;;;;;;14.88;5.20;;;;;;;;;;5110242;28;20039;-78
2023/07/31 05:45:08;;;;;;;17.67;5.75;;;;;;;;;;5110655;28;20091;-78
2023/07/31 05:47:34;;;;;;;17.75;5.75;;;;;;;;;;5112503;28;20047;-78
2023/07/31 05:50:00;;;;;;;16.42;5.72;;;;;;;;;;5108380;28;20036;-78
2023/07/31 05:52:26;;;;;;;24.10;7.45;;;;;;;;;;5094321;28;20044;-78
2023/07/31 05:54:52;;;;;;;24.67;6.45;;;;;;;;;;5108522;28;20066;-78
2023/07/31 05:57:18;;;;;;;20.58;7.55;;;;;;;;;;5092876;28;20039;-78
2023/07/31 05:59:44;;;;;;;22.00;7.53;;;;;;;;;;5112158;28;20054;-78
2023/07/31 06:02:10;;;;;;;24.52;7.80;;;;;;;;;;5110592;28;20050;-77
2023/07/31 06:04:37;;;;;;;22.80;7.43;;;;;;;;;;5108745;28;20484;-77
2023/07/31 06:07:03;;;;;;;24.02;8.02;;;;;;;;;;5102925;28;20401;-77
2023/07/31 06:09:29;;;;;;;25.25;8.57;;;;;;;;;;5065650;28;20446;-77
2023/07/31 06:11:55;;;;;;;23.27;7.57;;;;;;;;;;5111379;28;20067;-78
2023/07/31 06:14:21;;;;;;;20.38;7.38;;;;;;;;;;5111307;28;20489;-77
2023/07/31 06:16:48;;;;;;;18.60;7.40;;;;;;;;;;5103067;28;20460;-77
2023/07/31 06:19:14;;;;;;;26.55;8.52;;;;;;;;;;5112110;28;20039;-77
2023/07/31 06:21:42;;;;;;;25.83;8.43;;;;;;;;;;5108695;28;20035;-77
2023/07/31 06:24:08;;;;;;;19.48;7.15;;;;;;;;;;5105507;28;20062;-78
2023/07/31 06:26:34;;;;;;;22.45;8.25;;;;;;;;;;5106299;28;20060;-78
2023/07/31 06:29:00;;;;;;;26.08;8.55;;;;;;;;;;5104144;28;20066;-78
2023/07/31 06:31:26;;;;;;;24.73;9.15;;;;;;;;;;5108042;28;20052;-78
2023/07/31 06:33:53;;;;;;;24.48;8.18;;;;;;;;;;5111502;28;20043;-78
2023/07/31 06:36:19;;;;;;;26.80;9.10;;;;;;;;;;5111344;28;20070;-78
2023/07/31 06:38:45;;;;;;;21.65;8.45;;;;;;;;;;5115932;28;20051;-78
2023/07/31 06:41:11;;;;;;;25.42;8.40;;;;;;;;;;5112195;28;20039;-78
2023/07/31 06:43:37;;;;;;;24.75;9.15;;;;;;;;;;5111129;28;20048;-78
2023/07/31 06:46:07;;;;;;;26.25;9.40;;;;;;;;;;5109893;28;20570;-78
2023/07/31 06:48:34;;;;;;;22.83;8.57;;;;;;;;;;5111316;28;20050;-78
2023/07/31 06:51:01;;;;;;;25.02;9.07;;;;;;;;;;5110431;28;20039;-78
2023/07/31 06:53:27;;;;;;;21.73;9.05;;;;;;;;;;5111288;27;20055;-78
2023/07/31 06:55:53;;;;;;;25.58;9.05;;;;;;;;;;5116128;27;20104;-78
2023/07/31 06:58:19;;;;;;;25.02;9.82;;;;;;;;;;5115658;27;20066;-78
2023/07/31 07:00:45;;;;;;;22.48;10.00;;;;;;;;;;5112911;27;20126;-78
2023/07/31 07:03:11;;;;;;;24.55;9.45;;;;;;;;;;5114065;28;20127;-78
2023/07/31 07:05:37;;;;;;;24.10;9.23;;;;;;;;;;5097668;27;20126;-78
2023/07/31 07:08:03;;;;;;;27.40;10.55;;;;;;;;;;5114130;27;20496;-78
2023/07/31 07:10:29;;;;;;;27.75;9.98;;;;;;;;;;5095624;28;20059;-77
2023/07/31 07:12:55;;;;;;;27.45;10.70;;;;;;;;;;5115438;27;20047;-78
2023/07/31 07:15:22;;;;;;;23.95;9.95;;;;;;;;;;5113373;27;20043;-79
2023/07/31 07:17:48;;;;;;;26.10;10.68;;;;;;;;;;5115976;27;20503;-78
2023/07/31 07:20:14;;;;;;;30.02;10.05;;;;;;;;;;5088677;28;20063;-78
2023/07/31 07:22:42;;;;;;;23.17;9.57;;;;;;;;;;5106491;28;20131;-78
2023/07/31 07:25:09;;;;;;;24.60;9.43;;;;;;;;;;5112011;28;20341;-80
2023/07/31 07:27:35;;;;;;;24.67;9.63;;;;;;;;;;5120246;28;20051;-79
2023/07/31 07:30:01;;;;;;;19.95;7.80;;;;;;;;;;5116505;28;20100;-80
2023/07/31 07:32:27;;;;;;;20.95;7.80;;;;;;;;;;5119499;28;20058;-80
2023/07/31 07:34:53;;;;;;;15.68;8.18;;;;;;;;;;5119813;28;20443;-80
2023/07/31 07:37:19;;;;;;;19.13;7.32;;;;;;;;;;5121210;28;20061;-80
2023/07/31 07:39:46;;;;;;;20.23;7.88;;;;;;;;;;5120908;28;20088;-80
2023/07/31 07:42:12;;;;;;;14.32;6.82;;;;;;;;;;5120290;28;20104;-80
2023/07/31 07:44:38;;;;;;;15.45;6.55;;;;;;;;;;5120837;28;20082;-80
2023/07/31 07:47:06;;;;;;;13.35;6.30;;;;;;;;;;5084457;28;20051;-80
2023/07/31 07:49:34;;;;;;;14.77;6.18;;;;;;;;;;5120839;28;20070;-80
2023/07/31 07:52:00;;;;;;;18.02;5.85;;;;;;;;;;5117125;28;20562;-80
2023/07/31 07:54:26;;;;;;;11.85;5.80;;;;;;;;;;5110203;28;20043;-79
2023/07/31 07:56:52;;;;;;;10.70;5.00;;;;;;;;;;5115647;28;20055;-80
2023/07/31 07:59:18;;;;;;;12.45;5.47;;;;;;;;;;5107822;28;20035;-79
2023/07/31 08:01:44;;;;;;;13.95;5.40;;;;;;;;;;5119810;28;20071;-79
2023/07/31 08:04:10;;;;;;;14.80;5.65;;;;;;;;;;5120581;28;20092;-79
2023/07/31 08:06:36;;;;;;;14.38;5.25;;;;;;;;;;5118263;28;20110;-80
2023/07/31 08:09:06;;;;;;;12.50;5.63;;;;;;;;;;5110291;28;20052;-79
2023/07/31 08:11:35;;;;;;;12.35;4.85;;;;;;;;;;5120710;28;20374;-80
2023/07/31 08:14:01;;;;;;;9.82;4.75;;;;;;;;;;5119405;27;20080;-79
2023/07/31 08:16:27;;;;;;;11.75;4.72;;;;;;;;;;5099251;28;20048;-79
2023/07/31 08:18:53;;;;;;;13.77;4.82;;;;;;;;;;5115149;28;20154;-79
2023/07/31 08:21:20;;;;;;;12.05;4.78;;;;;;;;;;5117016;28;20051;-80
2023/07/31 08:23:46;;;;;;;11.48;5.13;;;;;;;;;;5117448;28;20126;-79
2023/07/31 08:26:16;;;;;;;11.32;4.93;;;;;;;;;;5103539;28;20051;-79
2023/07/31 08:28:42;;;;;;;12.02;4.60;;;;;;;;;;5119186;28;20053;-80
2023/07/31 08:31:08;;;;;;;8.88;4.10;;;;;;;;;;5116837;28;20085;-80
2023/07/31 08:33:34;;;;;;;11.13;4.70;;;;;;;;;;5116280;28;20047;-79
2023/07/31 08:36:01;;;;;;;8.75;4.18;;;;;;;;;;5113617;28;20040;-79
2023/07/31 08:38:29;;;;;;;8.85;4.22;;;;;;;;;;5090115;28;20431;-79
2023/07/31 08:40:55;;;;;;;9.07;4.38;;;;;;;;;;5111857;28;20505;-79
2023/07/31 08:43:23;;;;;;;8.57;3.80;;;;;;;;;;5116517;27;20039;-79
2023/07/31 08:45:49;;;;;;;12.00;4.05;;;;;;;;;;5092880;28;20028;-79
2023/07/31 08:48:16;;;;;;;7.28;3.60;;;;;;;;;;5112486;28;20512;-80
2023/07/31 08:50:42;;;;;;;7.38;3.38;;;;;;;;;;5113820;28;20078;-79
2023/07/31 08:53:09;;;;;;;8.70;3.50;;;;;;;;;;5109109;28;20079;-80
2023/07/31 08:55:35;;;;;;;7.28;3.30;;;;;;;;;;5107442;28;20510;-79
2023/07/31 08:58:04;;;;;;;7.55;3.40;;;;;;;;;;5111979;28;20048;-79
2023/07/31 09:00:30;;;;;;;5.20;2.80;;;;;;;;;;5095580;28;20127;-79
2023/07/31 09:03:01;;;;;;;7.68;2.88;;;;;;;;;;5114263;28;20047;-80
2023/07/31 09:05:29;;;;;;;7.25;3.17;;;;;;;;;;5116910;28;20062;-79
2023/07/31 09:07:56;;;;;;;7.53;3.17;;;;;;;;;;5114163;28;20035;-79
2023/07/31 09:10:22;;;;;;;6.95;2.92;;;;;;;;;;5101143;28;20346;-79
2023/07/31 09:12:49;;;;;;;7.55;3.13;;;;;;;;;;5116164;28;20051;-80
2023/07/31 09:15:15;;;;;;;6.93;2.97;;;;;;;;;;5105529;27;20039;-79
2023/07/31 09:17:41;;;;;;;6.57;2.60;;;;;;;;;;5107110;27;20043;-79
2023/07/31 09:20:17;;;;;;;7.55;2.60;;;;;;;;;;5120916;27;20036;-79
2023/07/31 09:22:44;;;;;;;5.15;2.30;;;;;;;;;;5119270;27;20425;-80
2023/07/31 09:25:21;;;;;;;5.07;2.20;;;;;;;;;;5111637;28;20127;-79
2023/07/31 09:27:51;;;;;;;6.85;2.30;;;;;;;;;;5104115;28;20163;-80
2023/07/31 09:30:17;;;;;;;5.75;1.80;;;;;;;;;;5113837;28;20047;-80
2023/07/31 09:32:44;;;;;;;5.60;1.90;;;;;;;;;;5121045;28;20032;-79
2023/07/31 09:35:21;;;;;;;4.32;1.63;;;;;;;;;;5117068;28;20036;-80
2023/07/31 09:37:50;;;;;;;2.97;1.40;;;;;;;;;;5111252;28;20052;-79
2023/07/31 09:40:27;;;;;;;4.57;1.60;;;;;;;;;;5117057;28;20043;-79
2023/07/31 09:42:53;;;;;;;3.50;1.20;;;;;;;;;;5117196;28;20055;-80
2023/07/31 09:45:19;;;;;;;3.50;1.23;;;;;;;;;;5110733;28;20035;-79
2023/07/31 09:47:48;;;;;;;4.13;0.90;;;;;;;;;;5117027;28;20093;-79
2023/07/31 09:50:18;;;;;;;3.20;1.00;;;;;;;;;;5114320;28;20036;-79
2023/07/31 09:52:44;;;;;;;2.80;0.90;;;;;;;;;;5090278;28;20044;-81
2023/07/31 09:55:10;;;;;;;3.08;1.00;;;;;;;;;;5111556;28;20127;-80
2023/07/31 09:57:42;;;;;;;2.03;0.82;;;;;;;;;;5110374;28;20093;-80
2023/07/31 10:00:09;;;;;;;2.95;0.80;;;;;;;;;;5111154;28;20052;-80
2023/07/31 10:02:36;;;;;;;2.95;0.90;;;;;;;;;;5092421;28;20088;-80
2023/07/31 10:05:03;;;;;;;1.90;0.82;;;;;;;;;;5110297;28;20220;-79
2023/07/31 10:07:30;;;;;;;2.20;0.80;;;;;;;;;;5107665;28;20046;-77
2023/07/31 10:09:58;;;;;;;2.08;0.75;;;;;;;;;;5107959;28;20040;-78
2023/07/31 10:12:27;;;;;;;2.47;0.90;;;;;;;;;;5117488;28;20044;-80
2023/07/31 10:14:54;;;;;;;2.50;0.75;;;;;;;;;;5094353;28;20406;-78
2023/07/31 10:17:21;;;;;;;2.45;0.80;;;;;;;;;;5115561;28;20036;-80
2023/07/31 10:19:48;;;;;;;1.65;0.73;;;;;;;;;;5113319;28;20358;-79
2023/07/31 10:22:15;;;;;;;3.42;0.80;;;;;;;;;;5113504;28;20051;-78
2023/07/31 10:24:43;;;;;;;1.90;0.70;;;;;;;;;;5077292;28;20040;-77
2023/07/31 10:27:10;;;;;;;1.48;0.63;;;;;;;;;;5094835;28;20054;-78
2023/07/31 10:29:37;;;;;;;2.60;0.80;;;;;;;;;;5107190;28;20414;-77
2023/07/31 10:32:06;;;;;;;2.25;0.77;;;;;;;;;;5087687;27;20177;-76
2023/07/31 10:34:34;;;;;;;1.73;0.60;;;;;;;;;;5109671;27;20477;-78
2023/07/31 10:37:19;;;;;;;3.35;0.90;;;;;;;;;;5110261;28;20499;-77
2023/07/31 10:39:55;;;;;;;2.28;0.80;;;;;;;;;;5109577;27;20103;-77
2023/07/31 10:42:27;;;;;;;2.85;0.95;;;;;;;;;;5111634;28;20050;-78
2023/07/31 10:44:55;;;;;;;3.22;1.10;;;;;;;;;;5108999;28;20048;-78
2023/07/31 10:47:21;;;;;;;2.20;0.90;;;;;;;;;;5109872;28;20127;-79
2023/07/31 10:49:49;;;;;;;2.65;0.98;;;;;;;;;;5101673;28;20051;-79
2023/07/31 10:52:22;;;;;;;2.42;1.10;;;;;;;;;;5102513;28;20039;-81
2023/07/31 10:54:48;;;;;;;1.90;0.95;;;;;;;;;;5108288;28;20118;-79
2023/07/31 10:57:25;;;;;;;2.60;1.10;;;;;;;;;;5088873;28;20139;-79
2023/07/31 10:59:51;;;;;;;3.28;1.05;;;;;;;;;;5106812;28;20567;-80
2023/07/31 11:02:29;;;;;;;2.42;1.10;;;;;;;;;;5105480;28;20390;-78
2023/07/31 11:05:11;;;;;;;1.95;0.88;;;;;;;;;;5107899;28;20043;-79
2023/07/31 11:07:47;;;;;;;2.78;0.88;;;;;;;;;;5110347;27;20040;-79
2023/07/31 11:10:16;;;;;;;1.95;0.90;;;;;;;;;;5108325;28;20485;-79
2023/07/31 11:12:42;;;;;;;2.47;1.00;;;;;;;;;;5116431;28;20051;-79
2023/07/31 11:15:11;;;;;;;2.80;1.20;;;;;;;;;;5112579;28;20111;-78
2023/07/31 11:17:39;;;;;;;3.30;1.30;;;;;;;;;;5097794;28;20043;-77
2023/07/31 11:20:05;;;;;;;2.35;0.98;;;;;;;;;;5116871;27;20520;-81
2023/07/31 11:22:31;;;;;;;5.07;1.33;;;;;;;;;;5112603;28;20053;-78
2023/07/31 11:24:58;;;;;;;2.20;1.00;;;;;;;;;;5109623;28;20116;-79
2023/07/31 11:27:28;;;;;;;2.50;1.02;;;;;;;;;;5107791;28;20048;-78
2023/07/31 11:30:00;;;;;;;2.58;1.02;;;;;;;;;;5116658;27;20040;-78
2023/07/31 11:32:26;;;;;;;2.35;1.00;;;;;;;;;;5107025;28;20100;-78
2023/07/31 11:34:53;;;;;;;1.52;0.80;;;;;;;;;;5100332;27;20382;-79
2023/07/31 11:37:19;;;;;;;1.45;0.80;;;;;;;;;;5120347;27;20122;-79
2023/07/31 11:39:59;;;;;;;2.50;0.93;;;;;;;;;;5117678;27;20535;-80
2023/07/31 11:42:25;;;;;;;1.50;0.77;;;;;;;;;;5116739;27;20107;-82
2023/07/31 11:44:51;;;;;;;2.78;0.80;;;;;;;;;;5076633;27;20123;-80
2023/07/31 11:47:17;;;;;;;2.35;0.60;;;;;;;;;;5116438;27;20040;-78
2023/07/31 11:49:44;;;;;;;0.93;0.60;;;;;;;;;;5114640;27;20050;-79
2023/07/31 11:52:10;;;;;;;1.40;0.60;;;;;;;;;;5117565;27;20031;-78
2023/07/31 11:54:37;;;;;;;1.27;0.63;;;;;;;;;;5115686;27;20047;-79
2023/07/31 11:57:03;;;;;;;2.10;0.52;;;;;;;;;;5084569;28;20051;-79
2023/07/31 11:59:29;;;;;;;3.55;0.60;;;;;;;;;;5110853;27;20063;-78
2023/07/31 12:01:56;;;;;;;2.78;0.50;;;;;;;;;;5095774;28;20481;-78
2023/07/31 12:04:22;;;;;;;0.80;0.50;;;;;;;;;;5108904;28;20040;-79
2023/07/31 12:06:48;;;;;;;1.73;0.50;;;;;;;;;;5116823;27;20048;-80
2023/07/31 12:09:17;;;;;;;1.02;0.50;;;;;;;;;;5106379;28;20040;-78
2023/07/31 12:11:47;;;;;;;0.70;0.40;;;;;;;;;;5098976;28;20486;-78
2023/07/31 12:14:26;;;;;;;1.58;0.52;;;;;;;;;;5102369;28;20059;-78
2023/07/31 12:16:56;;;;;;;1.85;0.65;;;;;;;;;;5087700;28;20062;-78
2023/07/31 12:19:23;;;;;;;2.70;0.52;;;;;;;;;;5105550;28;20097;-78
2023/07/31 12:21:49;;;;;;;1.52;0.47;;;;;;;;;;5116508;28;20413;-78
2023/07/31 12:24:15;;;;;;;2.00;0.60;;;;;;;;;;5115929;28;20051;-80
2023/07/31 12:26:46;;;;;;;1.48;0.77;;;;;;;;;;5116053;28;20134;-77
2023/07/31 12:29:12;;;;;;;1.38;0.70;;;;;;;;;;5110916;27;20066;-78
2023/07/31 12:31:41;;;;;;;1.90;0.60;;;;;;;;;;5094539;28;20105;-78
2023/07/31 12:34:16;;;;;;;3.17;0.95;;;;;;;;;;5093074;28;20043;-78
2023/07/31 12:36:42;;;;;;;6.55;1.45;;;;;;;;;;5115107;28;20079;-78
2023/07/31 12:39:09;;;;;;;3.22;1.10;;;;;;;;;;5117384;28;20069;-79
2023/07/31 12:41:35;;;;;;;2.65;1.17;;;;;;;;;;5121442;28;20058;-80
2023/07/31 12:44:01;;;;;;;4.72;1.10;;;;;;;;;;5115630;28;20039;-79
2023/07/31 12:46:27;;;;;;;5.05;1.17;;;;;;;;;;5118516;28;20047;-79
2023/07/31 12:48:53;;;;;;;4.22;0.90;;;;;;;;;;5117342;28;20039;-79
2023/07/31 12:51:19;;;;;;;2.63;0.80;;;;;;;;;;5118603;28;20050;-79
2023/07/31 12:53:45;;;;;;;3.65;0.85;;;;;;;;;;5109081;27;20504;-80
2023/07/31 12:56:11;;;;;;;3.00;0.93;;;;;;;;;;5118626;28;20048;-79
2023/07/31 12:58:37;;;;;;;4.47;0.90;;;;;;;;;;5117289;28;20065;-78
2023/07/31 13:01:03;;;;;;;3.63;0.93;;;;;;;;;;5111673;28;20044;-78
2023/07/31 13:03:29;;;;;;;4.07;1.08;;;;;;;;;;5110281;28;20043;-80
2023/07/31 13:05:55;;;;;;;4.53;1.13;;;;;;;;;;5114409;28;20104;-77
2023/07/31 13:08:21;;;;;;;4.10;1.17;;;;;;;;;;5114105;28;20036;-77
2023/07/31 13:10:47;;;;;;;4.00;1.10;;;;;;;;;;5117413;27;20044;-79
2023/07/31 13:13:13;;;;;;;4.43;1.25;;;;;;;;;;5113980;28;20065;-79
2023/07/31 13:15:39;;;;;;;6.10;1.40;;;;;;;;;;5105066;28;20434;-77
2023/07/31 13:18:05;;;;;;;5.45;1.73;;;;;;;;;;5114877;28;20048;-78
2023/07/31 13:20:31;;;;;;;5.35;1.80;;;;;;;;;;5107051;28;20054;-78
2023/07/31 13:22:57;;;;;;;4.60;1.60;;;;;;;;;;5114051;28;20415;-77
2023/07/31 13:25:23;;;;;;;5.78;1.50;;;;;;;;;;5114044;28;20374;-77
2023/07/31 13:27:49;;;;;;;6.07;1.60;;;;;;;;;;5117436;28;20966;-78
2023/07/31 13:30:15;;;;;;;8.10;1.77;;;;;;;;;;5121006;28;20083;-81
2023/07/31 13:32:41;;;;;;;6.63;1.90;;;;;;;;;;5122381;28;20399;-82
2023/07/31 13:35:08;;;;;;;6.38;2.22;;;;;;;;;;5115627;28;20054;-80
2023/07/31 13:37:35;;;;;;;11.65;1.77;;;;;;;;;;5105081;28;20071;-80
2023/07/31 13:40:01;;;;;;;6.30;2.30;;;;;;;;;;5068242;28;20048;-80
2023/07/31 13:42:28;;;;;;;6.15;2.20;;;;;;;;;;5103109;28;20083;-81
2023/07/31 13:44:56;;;;;;;6.78;2.20;;;;;;;;;;5102624;28;20130;-81
2023/07/31 13:47:22;;;;;;;6.10;2.22;;;;;;;;;;5101520;28;20085;-81
2023/07/31 13:49:48;;;;;;;7.68;2.33;;;;;;;;;;5101192;28;20056;-80
2023/07/31 13:52:14;;;;;;;8.88;2.17;;;;;;;;;;5116694;28;20067;-81
2023/07/31 13:54:40;;;;;;;8.10;2.22;;;;;;;;;;5121221;28;20035;-81
2023/07/31 13:57:06;;;;;;;5.43;2.00;;;;;;;;;;5104210;28;20036;-81
2023/07/31 13:59:32;;;;;;;8.52;2.60;;;;;;;;;;5110114;28;20464;-80
2023/07/31 14:01:58;;;;;;;6.70;2.35;;;;;;;;;;5099814;28;20078;-81
2023/07/31 14:04:24;;;;;;;7.45;2.60;;;;;;;;;;5101092;28;20093;-80
2023/07/31 14:06:50;;;;;;;8.30;2.50;;;;;;;;;;5096421;28;20052;-80
2023/07/31 14:09:17;;;;;;;7.38;2.75;;;;;;;;;;5089643;28;20064;-80
2023/07/31 14:11:43;;;;;;;11.40;3.00;;;;;;;;;;5121257;28;20047;-81
2023/07/31 14:14:10;;;;;;;6.57;2.70;;;;;;;;;;5120519;28;20055;-80
2023/07/31 14:16:36;;;;;;;6.68;2.80;;;;;;;;;;5119202;28;20044;-80
2023/07/31 14:19:02;;;;;;;10.57;2.90;;;;;;;;;;5109927;28;20047;-80
2023/07/31 14:21:28;;;;;;;8.40;3.08;;;;;;;;;;5116509;28;20047;-81
2023/07/31 14:23:54;;;;;;;8.48;2.90;;;;;;;;;;5118120;28;20047;-80
2023/07/31 14:26:20;;;;;;;9.63;2.95;;;;;;;;;;5118741;28;20507;-80
2023/07/31 14:28:46;;;;;;;8.45;2.40;;;;;;;;;;5111441;28;20048;-81
2023/07/31 14:31:12;;;;;;;9.63;2.80;;;;;;;;;;5101228;28;20059;-80
2023/07/31 14:33:38;;;;;;;6.70;2.10;;;;;;;;;;5099378;28;20410;-81
2023/07/31 14:36:04;;;;;;;8.52;2.45;;;;;;;;;;5109354;28;20040;-81
2023/07/31 14:38:30;;;;;;;7.30;2.15;;;;;;;;;;5117889;28;20036;-80